Corinne, UT

12:13 AM MDT on November 01, 2014 (GMT -0600)
Logan-Cache | Change Station
CLOSE
Current Station
Airport
Location: Logan,
Elevation: 4455 ft
Nearby Weather Stations
Active Advisory: Wind Advisory Active Notice: Record Report

Elev 4455 ft 41.79 °N, 111.85 °W | Updated 22 minutes ago

Mostly Cloudy
Mostly Cloudy
42 °F
Feels Like 39 °F
N
5
Wind Variable Wind from ENE

Today
High -- | Low -- °F
--% Chance of Precip.
Yesterday
High -- | Low -- °F
Precip. -- in
8:00 AM 6:24 PM
Waxing Gibbous, 63% visible
Pressure 29.73 in
Visibility 10.0 miles
Clouds Mostly Cloudy 12000 ft
Windchill 39 °F
Dew Point 32 °F
Humidity 67%
Rainfall 0.00 in
Snow Depth Not available.
UV 0 out of 12
Pollen 1.40 out of 12
Air Quality Not available.
Flu Activity Not available.
METAR KLGU 010551Z AUTO 07004KT 10SM BKN120 06/00 A2979 RMK AO2 SLP066 T00560000 10178 20050 57009 TSNO

More Conditions Fewer Conditions

Pressure 29.73 in
Visibility 10.0 miles
Clouds Mostly Cloudy 12000 ft
Windchill 39 °F
Dew Point 32 °F
Humidity 67%
Rainfall 0.00 in
Snow Depth Not available.
UV 0 out of 12
Pollen 1.40 out of 12
Air Quality Not available.
Flu Activity Not available.
METAR KLGU 010551Z AUTO 07004KT 10SM BKN120 06/00 A2979 RMK AO2 SLP066 T00560000 10178 20050 57009 TSNO

More Conditions Fewer Conditions

10-Day Weather Forecast

Almanac

Astronomy

Nov. 01, 2014 Rise Set
Actual Time
Civil Twilight
Nautical Twilight
Astronomical Twilight
Moon
Length of Visible Light
Length of Day
Tomorrow will be .
, % of the Moon is Illuminated

Today's Extremes

State Highs State Lows

Community

WunderPhotos

Upload Photos

1,766,866 photos uploaded!

WunderBlogs® & News

Nearby

Air Quality

  Air Quality AQ Index Pollutant
Not available.

Snow Depth

Station Depth Elevation

Earthquake Activity

City Distance Mag. Time & Date
Minimum magnitude displayed is 2.5.

Coastal Water Temperatures

Place Temperature

Nearby Weather Stations